aviador You're here:

KMRB Decoded Metar

MARTINSBURG in WV, USA
Report Time2017-10-19 08:53:00
UTC Time2017-10-19 09:01:30
Flight Rules vfr VFR
Wind260° at 03 kt
W.Decomp.*RWY 26: 3.0 kt HW 0.4 kt RCW
W.Rank260° ranks 15
Current wind is below 260° avg. (9.5)
Visibility9999 m
Phenomena:N/A
Clouds:N/A
Expected CloudBase > 400 ft AGL from Temp-Dew spread
CeilingNone
Temp04°C (ISA -10)
Dew Point03°C (93% RH)
AAT1.4°C
QNH1024 hPa
Density Alt-932 ft
Elevation538 ft
Report Wrong Elevation
Raw Report
METAR KMRB 190853Z AUTO 26003KT 10SM CLR 04/03 A3025 RMK AO2 SLP243
T00390028 56004=

Extra information for KMRB:More info

Metar Taf Metar & Taf Last 4 Metars F.Rules Stats Wind Profile Meteogram Temp Stats Airport Information Weather charts Add Link Nearby VenuesMetar ALERT Operation Metar Decoded Social comments

AIRNAV info for KMRB